createdAt,value
2022-10-23T00:01:44.422Z,9.07
2022-10-23T00:04:16.479Z,11.83
2022-10-23T00:06:45.430Z,11.80
2022-10-23T00:09:17.599Z,13.27
2022-10-23T00:11:48.083Z,10.97
2022-10-23T00:14:18.253Z,8.40
2022-10-23T00:16:46.729Z,9.67
2022-10-23T00:19:14.021Z,12.90
2022-10-23T00:21:41.933Z,11.10
2022-10-23T00:26:42.062Z,10.63
2022-10-23T00:29:10.137Z,9.43
2022-10-23T00:31:38.903Z,11.37
2022-10-23T00:34:08.756Z,10.27
2022-10-23T00:36:37.002Z,12.27
2022-10-23T00:39:05.961Z,10.77
2022-10-23T00:41:34.139Z,9.53
2022-10-23T00:44:17.660Z,14.57
2022-10-23T00:46:46.103Z,10.17
2022-10-23T00:49:14.857Z,7.93
2022-10-23T00:51:57.203Z,7.67
2022-10-23T00:54:30.332Z,10.57
2022-10-23T00:57:02.501Z,14.20
2022-10-23T00:59:31.155Z,14.60
2022-10-23T01:01:59.848Z,12.77
2022-10-23T01:04:29.053Z,14.30
2022-10-23T01:07:10.115Z,11.30
2022-10-23T01:09:59.005Z,10.97
2022-10-23T01:12:51.912Z,15.93
2022-10-23T01:15:21.980Z,11.47
2022-10-23T01:18:06.107Z,14.47
2022-10-23T01:20:59.705Z,10.77
2022-10-23T01:23:50.804Z,15.07
2022-10-23T01:26:39.049Z,8.37
2022-10-23T01:29:36.480Z,9.80
2022-10-23T01:32:25.546Z,7.83
2022-10-23T01:35:00.819Z,12.33
2022-10-23T01:37:43.368Z,9.40
2022-10-23T01:40:28.962Z,16.37
2022-10-23T01:43:04.609Z,12.03
2022-10-23T01:45:40.957Z,10.73
2022-10-23T01:48:15.533Z,10.17
2022-10-23T01:50:45.126Z,10.13
2022-10-23T01:53:12.523Z,12.20
2022-10-23T01:58:16.669Z,14.37
2022-10-23T02:00:47.593Z,13.87
2022-10-23T02:03:18.315Z,10.30
2022-10-23T02:05:45.932Z,10.97
2022-10-23T02:08:13.617Z,15.57
2022-10-23T02:10:55.309Z,13.17
2022-10-23T02:14:02.115Z,16.10
2022-10-23T02:16:55.394Z,11.20
2022-10-23T02:20:00.502Z,13.63
2022-10-23T02:22:41.018Z,13.67
2022-10-23T02:25:20.509Z,12.20
2022-10-23T02:28:01.073Z,14.30
2022-10-23T02:30:32.039Z,10.67
2022-10-23T02:33:00.833Z,7.10
2022-10-23T02:35:28.175Z,12.23
2022-10-23T02:37:58.973Z,10.63
2022-10-23T02:40:44.397Z,9.30
2022-10-23T02:43:25.562Z,13.23
2022-10-23T02:46:30.426Z,12.20
2022-10-23T02:49:28.399Z,8.87
2022-10-23T02:52:23.178Z,9.77
2022-10-23T02:55:24.769Z,10.40
2022-10-23T02:57:56.739Z,7.27
2022-10-23T03:00:24.380Z,7.43
2022-10-23T03:03:00.717Z,7.43
2022-10-23T03:05:39.399Z,8.87
2022-10-23T03:08:10.262Z,8.57
2022-10-23T03:10:37.556Z,6.10
2022-10-23T03:13:04.726Z,9.00
2022-10-23T03:15:31.816Z,9.87
2022-10-23T03:17:58.858Z,6.90
2022-10-23T03:20:26.114Z,12.33
2022-10-23T03:22:53.322Z,8.60
2022-10-23T03:25:20.580Z,10.63
2022-10-23T03:27:47.637Z,10.57
2022-10-23T03:30:14.755Z,12.07
2022-10-23T03:32:42.063Z,7.37
2022-10-23T03:35:09.781Z,9.53
2022-10-23T03:37:36.898Z,8.90
2022-10-23T03:40:05.248Z,7.40
2022-10-23T03:42:32.306Z,11.30
2022-10-23T03:44:59.332Z,7.23
2022-10-23T03:47:26.939Z,7.80
2022-10-23T03:49:54.438Z,9.17
2022-10-23T03:52:21.634Z,6.70
2022-10-23T03:54:48.772Z,8.07
2022-10-23T03:57:15.833Z,7.70
2022-10-23T03:59:42.940Z,8.60
2022-10-23T04:02:10.671Z,6.80
2022-10-23T04:04:38.228Z,7.37
2022-10-23T04:07:05.366Z,9.27
2022-10-23T04:09:32.450Z,6.60
2022-10-23T04:11:59.510Z,7.73
2022-10-23T04:14:27.137Z,7.83
2022-10-23T04:16:54.227Z,6.17
2022-10-23T04:19:21.344Z,7.27
2022-10-23T04:21:48.483Z,7.73
2022-10-23T04:24:15.640Z,9.83
2022-10-23T04:26:42.768Z,7.23
2022-10-23T04:29:09.967Z,7.77
2022-10-23T04:31:37.031Z,8.70
2022-10-23T04:36:32.540Z,7.87
2022-10-23T04:38:59.684Z,6.70
2022-10-23T04:41:26.817Z,6.00
2022-10-23T04:43:53.966Z,5.40
2022-10-23T04:46:21.603Z,6.97
2022-10-23T04:48:48.837Z,6.63
2022-10-23T04:51:16.509Z,6.70
2022-10-23T04:53:43.580Z,4.33
2022-10-23T04:56:15.708Z,7.23
2022-10-23T04:58:44.596Z,7.17
2022-10-23T05:01:12.200Z,6.33
2022-10-23T05:03:39.789Z,7.47
2022-10-23T05:06:07.647Z,6.70
2022-10-23T05:08:36.105Z,4.17
2022-10-23T05:11:03.713Z,4.33
2022-10-23T05:13:30.734Z,4.43
2022-10-23T05:16:00.298Z,3.50
2022-10-23T05:18:34.908Z,3.57
2022-10-23T05:21:28.989Z,8.80
2022-10-23T05:23:56.188Z,3.13
2022-10-23T05:26:23.376Z,3.63
2022-10-23T05:28:50.442Z,4.40
2022-10-23T05:31:19.100Z,3.57
2022-10-23T05:33:48.174Z,3.67
2022-10-23T05:36:16.579Z,2.93
2022-10-23T05:38:44.367Z,3.00
2022-10-23T05:41:11.726Z,5.50
2022-10-23T05:43:39.150Z,3.57
2022-10-23T05:46:07.688Z,3.63
2022-10-23T05:48:35.729Z,3.40
2022-10-23T05:51:08.495Z,4.07
2022-10-23T05:53:38.736Z,6.23
2022-10-23T05:56:09.666Z,3.77
2022-10-23T05:58:36.908Z,4.80
2022-10-23T06:01:10.502Z,5.53
2022-10-23T06:03:39.208Z,5.10
2022-10-23T06:06:08.178Z,3.20
2022-10-23T06:08:36.054Z,3.00
2022-10-23T06:11:13.945Z,3.13
2022-10-23T06:13:46.039Z,5.63
2022-10-23T06:16:25.484Z,3.60
2022-10-23T06:18:52.944Z,4.43
2022-10-23T06:21:20.831Z,5.27
2022-10-23T06:23:48.444Z,7.23
2022-10-23T06:26:18.697Z,4.00
2022-10-23T06:28:46.159Z,4.97
2022-10-23T06:31:19.284Z,4.43
2022-10-23T06:33:46.678Z,5.20
2022-10-23T06:36:14.241Z,4.40
2022-10-23T06:38:41.809Z,5.37
2022-10-23T06:41:17.003Z,3.97
2022-10-23T06:43:44.665Z,4.70
2022-10-23T06:46:11.718Z,6.27
2022-10-23T06:48:38.867Z,5.17
2022-10-23T06:51:10.308Z,4.33
2022-10-23T06:53:38.178Z,3.80
2022-10-23T06:56:07.982Z,6.03
2022-10-23T06:58:38.116Z,4.40
2022-10-23T07:01:10.247Z,6.00
2022-10-23T07:03:37.578Z,4.23
2022-10-23T07:06:07.988Z,4.67
2022-10-23T07:08:35.771Z,5.50
2022-10-23T07:11:05.725Z,4.90
2022-10-23T07:13:35.458Z,6.77
2022-10-23T07:16:20.786Z,5.13
2022-10-23T07:18:49.944Z,3.70
2022-10-23T07:21:17.027Z,4.60
2022-10-23T07:23:44.137Z,4.20
2022-10-23T07:26:15.799Z,6.27
2022-10-23T07:28:45.549Z,4.63
2022-10-23T07:31:13.815Z,2.87
2022-10-23T07:33:41.268Z,7.10
2022-10-23T07:36:10.809Z,6.40
2022-10-23T07:38:38.211Z,10.40
2022-10-23T07:41:08.913Z,4.47
2022-10-23T07:43:39.156Z,5.50
2022-10-23T07:46:08.363Z,5.03
2022-10-23T07:48:36.698Z,4.47
2022-10-23T07:51:08.878Z,5.07
2022-10-23T07:53:38.040Z,5.30
2022-10-23T07:56:15.969Z,4.13
2022-10-23T07:58:43.335Z,6.97
2022-10-23T08:01:20.910Z,4.70
2022-10-23T08:03:48.359Z,4.50
2022-10-23T08:06:15.784Z,3.30
2022-10-23T08:11:25.930Z,7.87
2022-10-23T08:13:55.936Z,5.20
2022-10-23T08:16:24.992Z,6.60
2022-10-23T08:18:52.419Z,7.53
2022-10-23T08:21:19.875Z,3.50
2022-10-23T08:23:46.928Z,5.93
2022-10-23T08:26:14.362Z,4.97
2022-10-23T08:28:41.591Z,4.47
2022-10-23T08:31:20.629Z,5.03
2022-10-23T08:36:28.723Z,4.13
2022-10-23T08:38:58.310Z,6.67
2022-10-23T08:41:36.549Z,3.70
2022-10-23T08:44:28.397Z,4.77
2022-10-23T08:47:24.508Z,8.17
2022-10-23T08:49:56.505Z,5.63
2022-10-23T08:52:39.764Z,5.33
2022-10-23T08:55:15.486Z,5.27
2022-10-23T08:57:58.418Z,6.10
2022-10-23T09:00:25.824Z,5.57
2022-10-23T09:02:54.629Z,7.23
2022-10-23T09:05:52.451Z,5.30
2022-10-23T09:08:50.741Z,3.30
2022-10-23T09:12:07.015Z,5.33
2022-10-23T09:15:10.702Z,5.73
2022-10-23T09:17:42.370Z,4.50
2022-10-23T09:20:24.258Z,4.97
2022-10-23T09:23:13.920Z,3.93
2022-10-23T09:25:42.593Z,3.60
2022-10-23T09:28:29.966Z,5.47
2022-10-23T09:31:12.316Z,4.17
2022-10-23T09:33:41.429Z,3.40
2022-10-23T09:36:13.717Z,4.07
2022-10-23T09:38:52.862Z,3.93
2022-10-23T09:41:35.078Z,3.87
2022-10-23T09:44:08.418Z,4.47
2022-10-23T09:46:44.370Z,3.90
2022-10-23T09:49:24.647Z,3.80
2022-10-23T09:52:12.139Z,4.40
2022-10-23T09:54:46.035Z,3.53
2022-10-23T09:57:31.520Z,4.83
2022-10-23T10:00:25.473Z,3.50
2022-10-23T10:03:05.993Z,4.03
2022-10-23T10:05:38.459Z,3.13
2022-10-23T10:08:41.666Z,3.83
2022-10-23T10:11:47.421Z,3.13
2022-10-23T10:14:29.685Z,3.73
2022-10-23T10:18:03.391Z,5.20
2022-10-23T10:21:14.013Z,2.00
2022-10-23T10:24:16.114Z,3.60
2022-10-23T10:26:57.493Z,3.80
2022-10-23T10:29:48.427Z,2.80
2022-10-23T10:32:33.794Z,2.40
2022-10-23T10:35:45.468Z,2.73
2022-10-23T10:38:53.057Z,3.23
2022-10-23T10:41:49.801Z,4.13
2022-10-23T10:45:01.497Z,3.77
2022-10-23T10:47:51.922Z,4.17
2022-10-23T10:50:43.881Z,2.77
2022-10-23T10:53:40.398Z,1.93
2022-10-23T10:56:14.887Z,2.30
2022-10-23T10:59:14.538Z,1.90
2022-10-23T11:02:05.251Z,3.03
2022-10-23T11:05:10.267Z,4.73
2022-10-23T11:07:54.633Z,2.57
2022-10-23T11:10:23.091Z,3.37
2022-10-23T11:12:52.187Z,4.03
2022-10-23T11:15:34.305Z,2.20
2022-10-23T11:18:07.378Z,3.63
2022-10-23T11:21:13.518Z,2.23
2022-10-23T11:24:03.395Z,2.20
2022-10-23T11:26:30.766Z,1.40
2022-10-23T11:29:33.088Z,2.20
2022-10-23T11:32:28.342Z,1.93
2022-10-23T11:35:07.317Z,1.80
2022-10-23T11:37:34.639Z,1.90
2022-10-23T11:40:21.665Z,1.93
2022-10-23T11:42:51.013Z,1.30
2022-10-23T11:45:39.689Z,4.77
2022-10-23T11:48:39.256Z,1.40
2022-10-23T11:51:25.839Z,1.67
2022-10-23T11:53:52.958Z,1.60
2022-10-23T11:56:20.120Z,1.60
2022-10-23T11:58:54.112Z,2.10
2022-10-23T12:01:45.804Z,4.87
2022-10-23T12:04:13.289Z,2.10
2022-10-23T12:07:03.079Z,2.23
2022-10-23T12:09:58.174Z,2.43
2022-10-23T12:12:40.953Z,2.30
2022-10-23T12:15:16.827Z,1.90
2022-10-23T12:17:45.268Z,1.30
2022-10-23T12:20:23.327Z,1.57
2022-10-23T12:23:05.301Z,1.97
2022-10-23T12:25:39.816Z,1.40
2022-10-23T12:28:40.948Z,1.47
2022-10-23T12:31:52.485Z,2.07
2022-10-23T12:35:15.824Z,1.30
2022-10-23T12:38:18.864Z,1.40
2022-10-23T12:41:14.685Z,1.57
2022-10-23T12:43:59.982Z,1.50
2022-10-23T12:46:47.557Z,1.23
2022-10-23T12:49:18.807Z,1.43
2022-10-23T12:51:54.091Z,1.57
2022-10-23T12:54:22.335Z,1.60
2022-10-23T12:56:49.572Z,1.30
2022-10-23T12:59:32.336Z,1.47
2022-10-23T13:02:00.003Z,1.07
2022-10-23T13:04:34.807Z,1.63
2022-10-23T13:07:03.977Z,1.60
2022-10-23T13:09:42.075Z,1.17
2022-10-23T13:12:24.627Z,1.40
2022-10-23T13:15:18.602Z,1.80
2022-10-23T13:17:48.797Z,1.20
2022-10-23T13:20:18.809Z,3.13
2022-10-23T13:23:00.832Z,1.73
2022-10-23T13:25:33.375Z,2.00
2022-10-23T13:28:19.279Z,0.90
2022-10-23T13:30:59.807Z,1.23
2022-10-23T13:33:47.291Z,1.07
2022-10-23T13:36:17.618Z,1.10
2022-10-23T13:39:00.111Z,1.40
2022-10-23T13:41:40.645Z,2.83
2022-10-23T13:44:11.940Z,0.97
2022-10-23T13:46:40.392Z,1.90
2022-10-23T13:49:07.622Z,0.70
2022-10-23T13:52:03.018Z,1.27
2022-10-23T13:54:30.690Z,1.20
2022-10-23T13:56:58.429Z,1.03
2022-10-23T13:59:25.550Z,1.63
2022-10-23T14:01:53.374Z,1.17
2022-10-23T14:04:21.065Z,1.53
2022-10-23T14:06:48.129Z,1.10
2022-10-23T14:09:18.358Z,1.70
2022-10-23T14:11:46.016Z,1.23
2022-10-23T14:14:13.247Z,1.87
2022-10-23T14:16:40.799Z,1.80
2022-10-23T14:19:08.564Z,1.40
2022-10-23T14:21:36.976Z,1.60
2022-10-23T14:24:04.179Z,1.00
2022-10-23T14:26:32.894Z,1.90
2022-10-23T14:29:04.232Z,1.07
2022-10-23T14:31:35.579Z,2.67
2022-10-23T14:34:02.950Z,1.10
2022-10-23T14:36:43.622Z,1.63
2022-10-23T14:39:18.475Z,4.50
2022-10-23T14:41:45.624Z,4.00
2022-10-23T14:44:13.189Z,2.37
2022-10-23T14:46:41.458Z,2.00
2022-10-23T14:49:08.561Z,4.77
2022-10-23T14:51:35.769Z,1.50
2022-10-23T14:54:06.536Z,1.90
2022-10-23T14:56:40.912Z,1.40
2022-10-23T14:59:09.296Z,1.37
2022-10-23T15:01:43.752Z,1.60
2022-10-23T15:04:14.900Z,1.60
2022-10-23T15:06:43.792Z,1.23
2022-10-23T15:09:11.241Z,1.13
2022-10-23T15:11:38.354Z,1.40
2022-10-23T15:14:05.681Z,2.93
2022-10-23T15:16:33.270Z,1.40
2022-10-23T15:19:00.312Z,1.23
2022-10-23T15:21:27.382Z,1.53
2022-10-23T15:23:55.072Z,3.13
2022-10-23T15:26:24.351Z,2.63
2022-10-23T15:28:58.514Z,2.03
2022-10-23T15:31:43.176Z,2.33
2022-10-23T15:34:23.405Z,2.23
2022-10-23T15:36:51.402Z,2.50
2022-10-23T15:39:23.958Z,2.30
2022-10-23T15:41:55.150Z,2.13
2022-10-23T15:44:26.014Z,3.13
2022-10-23T15:46:53.546Z,2.00
2022-10-23T15:49:21.296Z,2.30
2022-10-23T15:51:48.397Z,2.40
2022-10-23T15:54:19.308Z,2.63
2022-10-23T15:56:50.718Z,3.17
2022-10-23T15:59:20.383Z,3.33
2022-10-23T16:01:48.797Z,3.90
2022-10-23T16:04:16.955Z,4.07
2022-10-23T16:06:45.591Z,3.67
2022-10-23T16:09:13.354Z,4.70
2022-10-23T16:11:43.633Z,4.03
2022-10-23T16:14:17.333Z,3.03
2022-10-23T16:16:45.019Z,2.97
2022-10-23T16:19:14.603Z,2.47
2022-10-23T16:21:42.232Z,2.43
2022-10-23T16:24:10.460Z,3.53
2022-10-23T16:26:38.847Z,3.37
2022-10-23T16:29:09.227Z,3.20
2022-10-23T16:31:37.184Z,3.23
2022-10-23T16:34:05.888Z,5.93
2022-10-23T16:36:35.676Z,5.07
2022-10-23T16:39:04.342Z,4.77
2022-10-23T16:41:32.450Z,3.57
2022-10-23T16:43:59.826Z,3.23
2022-10-23T16:46:28.265Z,3.83
2022-10-23T16:48:56.025Z,7.53
2022-10-23T16:51:26.791Z,2.43
2022-10-23T16:53:54.859Z,2.47
2022-10-23T16:56:28.041Z,2.13
2022-10-23T17:01:33.631Z,1.50
2022-10-23T17:04:02.898Z,1.60
2022-10-23T17:06:32.829Z,1.00
2022-10-23T17:09:01.387Z,3.93
2022-10-23T17:11:36.145Z,2.70
2022-10-23T17:14:17.848Z,3.20
2022-10-23T17:16:52.391Z,2.87
2022-10-23T17:19:43.701Z,4.10
2022-10-23T17:22:13.535Z,2.10
2022-10-23T17:24:45.285Z,4.50
2022-10-23T17:27:16.187Z,4.63
2022-10-23T17:29:44.345Z,6.77
2022-10-23T17:32:12.377Z,4.20
2022-10-23T17:34:41.283Z,3.63
2022-10-23T17:37:41.216Z,2.80
2022-10-23T17:40:10.220Z,3.07
2022-10-23T17:42:38.252Z,4.73
2022-10-23T17:45:07.288Z,4.33
2022-10-23T17:47:36.326Z,3.63
2022-10-23T17:50:04.569Z,3.47
2022-10-23T17:52:33.699Z,3.10
2022-10-23T17:55:04.745Z,2.50
2022-10-23T17:57:33.115Z,2.47
2022-10-23T18:00:02.203Z,6.00
2022-10-23T18:02:33.527Z,2.90
2022-10-23T18:05:01.958Z,5.33
2022-10-23T18:07:30.502Z,2.67
2022-10-23T18:09:59.840Z,3.63
2022-10-23T18:12:31.569Z,4.83
2022-10-23T18:15:06.115Z,4.37
2022-10-23T18:17:34.397Z,3.43
2022-10-23T18:20:03.185Z,2.70
2022-10-23T18:22:43.083Z,2.97
2022-10-23T18:25:12.153Z,3.60
2022-10-23T18:30:40.412Z,5.07
2022-10-23T18:37:08.573Z,2.87
2022-10-23T18:39:40.219Z,4.33
2022-10-23T18:42:08.524Z,5.13
2022-10-23T18:44:37.586Z,5.90
2022-10-23T18:49:52.638Z,6.23
2022-10-23T18:52:20.782Z,8.67
2022-10-23T18:54:48.899Z,3.87
2022-10-23T18:57:16.895Z,5.33
2022-10-23T18:59:45.474Z,4.07
2022-10-23T19:02:14.418Z,6.33
2022-10-23T19:04:42.270Z,6.90
2022-10-23T19:07:10.106Z,4.97
2022-10-23T19:09:37.887Z,6.07
2022-10-23T19:12:06.264Z,5.47
2022-10-23T19:14:35.149Z,6.67
2022-10-23T19:17:11.157Z,7.10
2022-10-23T19:19:56.331Z,4.60
2022-10-23T19:22:24.401Z,7.60
2022-10-23T19:25:10.348Z,4.23
2022-10-23T19:27:39.877Z,4.70
2022-10-23T19:30:13.562Z,4.53
2022-10-23T19:32:43.577Z,4.20
2022-10-23T19:35:14.256Z,6.37
2022-10-23T19:37:42.374Z,3.47
2022-10-23T19:40:12.044Z,4.03
2022-10-23T19:42:41.997Z,6.20
2022-10-23T19:45:15.478Z,6.93
2022-10-23T19:47:46.388Z,4.63
2022-10-23T19:50:13.965Z,7.30
2022-10-23T19:52:41.164Z,9.50
2022-10-23T19:55:09.089Z,5.27
2022-10-23T19:57:37.267Z,2.80
2022-10-23T20:00:07.963Z,4.77
2022-10-23T20:02:38.631Z,4.73
2022-10-23T20:05:07.623Z,5.87
2022-10-23T20:07:37.170Z,4.33
2022-10-23T20:10:08.562Z,5.57
2022-10-23T20:12:35.891Z,5.30
2022-10-23T20:15:03.143Z,3.70
2022-10-23T20:17:30.404Z,7.90
2022-10-23T20:19:57.629Z,3.63
2022-10-23T20:22:24.803Z,2.80
2022-10-23T20:24:52.151Z,6.23
2022-10-23T20:27:19.360Z,4.87
2022-10-23T20:29:46.574Z,5.13
2022-10-23T20:32:14.883Z,2.43
2022-10-23T20:34:42.654Z,5.13
2022-10-23T20:37:09.782Z,3.50
2022-10-23T20:39:38.379Z,4.17
2022-10-23T20:42:05.637Z,7.10
2022-10-23T20:44:32.998Z,4.47
2022-10-23T20:47:00.214Z,3.73
2022-10-23T20:49:28.342Z,4.27
2022-10-23T20:51:56.996Z,4.33
2022-10-23T20:54:26.205Z,3.50
2022-10-23T20:56:53.325Z,5.93
2022-10-23T20:59:20.811Z,4.03
2022-10-23T21:01:51.326Z,4.20
2022-10-23T21:04:22.637Z,5.47
2022-10-23T21:07:09.333Z,4.13
2022-10-23T21:09:38.171Z,8.00
2022-10-23T21:12:06.825Z,6.43
2022-10-23T21:14:34.771Z,6.07
2022-10-23T21:17:02.274Z,5.20
2022-10-23T21:19:29.385Z,5.50
2022-10-23T21:21:56.713Z,5.70
2022-10-23T21:24:24.700Z,3.17
2022-10-23T21:26:52.074Z,4.23
2022-10-23T21:29:20.285Z,5.83
2022-10-23T21:31:54.024Z,2.97
2022-10-23T21:34:21.280Z,5.83
2022-10-23T21:37:11.415Z,4.00
2022-10-23T21:39:36.562Z,4.17
2022-10-23T21:42:04.004Z,3.53
2022-10-23T21:44:31.132Z,5.93
2022-10-23T21:46:58.487Z,4.33
2022-10-23T21:49:25.553Z,5.60
2022-10-23T21:51:53.386Z,3.93
2022-10-23T21:54:20.391Z,2.67
2022-10-23T21:56:51.079Z,3.57
2022-10-23T21:59:25.899Z,1.87
2022-10-23T22:01:55.181Z,2.60
2022-10-23T22:04:22.561Z,2.40
2022-10-23T22:06:52.309Z,2.13
2022-10-23T22:09:21.178Z,2.67
2022-10-23T22:11:53.651Z,1.87
2022-10-23T22:14:22.456Z,3.00
2022-10-23T22:16:49.713Z,2.67
2022-10-23T22:19:18.699Z,2.60
2022-10-23T22:21:47.705Z,3.20
2022-10-23T22:24:15.776Z,2.53
2022-10-23T22:26:51.184Z,2.47
2022-10-23T22:29:22.550Z,3.03
2022-10-23T22:31:50.294Z,2.37
2022-10-23T22:34:41.170Z,2.67
2022-10-23T22:37:12.575Z,2.57
2022-10-23T22:39:40.344Z,3.70
2022-10-23T22:42:08.074Z,3.37
2022-10-23T22:44:35.213Z,2.67
2022-10-23T22:47:02.380Z,3.00
2022-10-23T22:49:29.647Z,3.40
2022-10-23T22:51:56.781Z,5.17
2022-10-23T22:54:23.891Z,4.70
2022-10-23T22:56:51.071Z,2.83
2022-10-23T22:59:18.305Z,3.60
2022-10-23T23:01:48.353Z,3.77
2022-10-23T23:07:11.677Z,2.27
2022-10-23T23:09:41.730Z,3.77
2022-10-23T23:12:12.013Z,2.77
2022-10-23T23:14:40.504Z,3.50
2022-10-23T23:17:09.684Z,4.10
2022-10-23T23:19:37.499Z,4.20
2022-10-23T23:22:05.442Z,4.23
2022-10-23T23:24:32.661Z,4.07
2022-10-23T23:26:59.747Z,5.07
2022-10-23T23:29:28.423Z,2.83
2022-10-23T23:31:55.772Z,4.17
2022-10-23T23:34:23.031Z,3.37
2022-10-23T23:36:50.144Z,4.70
2022-10-23T23:39:17.674Z,3.17
2022-10-23T23:41:44.802Z,2.83
2022-10-23T23:44:12.355Z,3.03
2022-10-23T23:46:39.563Z,3.30
2022-10-23T23:49:06.601Z,3.53
2022-10-23T23:51:33.772Z,3.23
2022-10-23T23:54:00.905Z,3.67
2022-10-23T23:56:28.259Z,3.60
2022-10-23T23:58:55.460Z,2.57
